Time;durP1;ratioP1;P1;durP2;ratioP2;P2;SDS_P1;SDS_P2;PMS_P1;PMS_P2;Temp;Humidity;BMP_temperature;BMP_pressure;BME280_temperature;BME280_humidity;BME280_pressure;Samples;Min_cycle;Max_cycle;Signal;HPM_P1;HPM_P2
2022/03/21 00:02:26;;;;;;;19.65;14.65;;;6.90;59.60;;;;;;5006224;28;20299;-54
2022/03/21 00:05:10;;;;;;;21.90;15.45;;;6.90;60.00;;;;;;4993875;28;20076;-53
2022/03/21 00:07:54;;;;;;;19.80;15.20;;;6.80;60.10;;;;;;4994065;28;20038;-55
2022/03/21 00:10:40;;;;;;;21.90;15.23;;;6.90;59.90;;;;;;4992374;28;20403;-51
2022/03/21 00:13:24;;;;;;;21.45;16.13;;;6.90;60.20;;;;;;4992139;28;20133;-54
2022/03/21 00:16:12;;;;;;;18.90;15.57;;;6.80;60.40;;;;;;4993715;28;20080;-51
2022/03/21 00:18:56;;;;;;;20.13;16.08;;;6.70;60.60;;;;;;4992576;28;20201;-51
2022/03/21 00:21:40;;;;;;;17.77;14.93;;;6.70;60.80;;;;;;4999539;28;20050;-53
2022/03/21 00:24:24;;;;;;;37.75;24.20;;;6.60;60.90;;;;;;4977635;28;20046;-53
2022/03/21 00:27:12;;;;;;;20.52;15.63;;;6.40;61.90;;;;;;5006504;28;20057;-54
2022/03/21 00:29:57;;;;;;;25.63;16.27;;;6.20;61.90;;;;;;4996583;28;20037;-48
2022/03/21 00:32:42;;;;;;;20.58;15.15;;;6.10;62.40;;;;;;4996992;28;20485;-48
2022/03/21 00:35:27;;;;;;;;;;;6.20;62.30;;;;;;4988342;28;20105;-51
2022/03/21 00:38:15;;;;;;;23.60;16.35;;;6.30;62.30;;;;;;4997031;28;19920;-53
2022/03/21 00:40:59;;;;;;;24.05;15.80;;;6.30;62.00;;;;;;4996439;28;20037;-55
2022/03/21 00:43:44;;;;;;;19.90;15.25;;;6.20;62.10;;;;;;4994748;28;20045;-55
2022/03/21 00:46:28;;;;;;;18.48;15.05;;;6.20;62.20;;;;;;5009024;28;20065;-53
2022/03/21 00:49:13;;;;;;;21.45;15.90;;;6.20;62.20;;;;;;4995812;28;20049;-55
2022/03/21 00:51:57;;;;;;;22.33;16.13;;;6.30;62.00;;;;;;4996017;28;20077;-51
2022/03/21 00:54:41;;;;;;;23.57;15.87;;;6.20;62.50;;;;;;4995434;28;20844;-55
2022/03/21 00:57:25;;;;;;;23.95;16.25;;;6.20;62.40;;;;;;4995006;28;20110;-56
2022/03/21 01:00:20;;;;;;;21.45;15.82;;;6.00;63.00;;;;;;4995066;28;20049;-55
2022/03/21 01:03:05;;;;;;;23.13;16.80;;;5.80;63.30;;;;;;4995453;28;20572;-54
2022/03/21 01:05:49;;;;;;;21.10;15.52;;;5.60;63.80;;;;;;4988530;28;20142;-55
2022/03/21 01:08:33;;;;;;;23.15;15.88;;;5.60;63.90;;;;;;4978903;28;20037;-53
2022/03/21 01:11:17;;;;;;;22.75;14.90;;;5.60;64.80;;;;;;4994836;28;20517;-50
2022/03/21 01:14:02;;;;;;;21.35;15.80;;;5.70;64.00;;;;;;4995577;28;20122;-54
2022/03/21 01:16:46;;;;;;;20.50;16.30;;;5.80;63.80;;;;;;4996350;28;20537;-52
2022/03/21 01:19:31;;;;;;;22.55;16.17;;;5.80;63.90;;;;;;5008620;28;20104;-53
2022/03/21 01:22:15;;;;;;;;;;;5.80;63.90;;;;;;4996723;28;20135;-50
2022/03/21 01:25:00;;;;;;;20.50;14.70;;;5.80;63.80;;;;;;4995993;28;19924;-51
2022/03/21 01:27:45;;;;;;;21.70;16.38;;;5.70;64.00;;;;;;4996050;28;20084;-52
2022/03/21 01:30:29;;;;;;;20.95;16.73;;;5.70;63.90;;;;;;4995108;28;20042;-50
2022/03/21 01:33:14;;;;;;;23.77;16.52;;;5.60;64.00;;;;;;5007644;28;20065;-49
2022/03/21 01:35:58;;;;;;;22.83;16.45;;;5.50;64.20;;;;;;4977741;28;20077;-49
2022/03/21 01:38:42;;;;;;;22.13;16.92;;;5.40;64.30;;;;;;4987587;28;20049;-52
2022/03/21 01:41:26;;;;;;;21.60;15.55;;;5.50;64.60;;;;;;4989149;28;20046;-54
2022/03/21 01:44:10;;;;;;;23.73;15.63;;;5.50;64.50;;;;;;4990692;28;20085;-52
2022/03/21 01:46:54;;;;;;;22.17;16.05;;;5.50;64.50;;;;;;4995460;28;20041;-50
2022/03/21 01:49:40;;;;;;;22.25;16.95;;;5.60;65.00;;;;;;4995137;28;20088;-49
2022/03/21 01:52:24;;;;;;;23.05;15.98;;;5.70;64.10;;;;;;4996196;28;20037;-56
2022/03/21 01:58:34;;;;;;;21.30;16.13;;;5.70;64.20;;;;;;4973016;28;20038;-51
2022/03/21 02:01:18;;;;;;;22.20;16.20;;;5.60;64.20;;;;;;4958871;28;20521;-52
2022/03/21 02:04:03;;;;;;;22.55;16.13;;;5.50;64.00;;;;;;4983741;28;20511;-54
2022/03/21 02:06:47;;;;;;;26.05;17.55;;;5.50;64.20;;;;;;4994329;28;20069;-51
2022/03/21 02:09:31;;;;;;;18.92;14.88;;;5.40;64.40;;;;;;4995574;28;20061;-50
2022/03/21 02:12:16;;;;;;;18.98;15.77;;;5.40;64.40;;;;;;4995324;28;20069;-51
2022/03/21 02:15:01;;;;;;;23.50;16.33;;;5.40;64.40;;;;;;4995734;28;20521;-48
2022/03/21 02:17:46;;;;;;;20.92;16.23;;;5.30;64.60;;;;;;4995512;28;20549;-53
2022/03/21 02:20:34;;;;;;;23.45;15.32;;;5.30;64.60;;;;;;4994562;28;20033;-56
2022/03/21 02:23:42;;;;;;;20.88;14.65;;;5.30;65.00;;;;;;4995578;28;20053;-48
2022/03/21 02:26:28;;;;;;;20.23;15.13;;;5.40;64.40;;;;;;4994937;28;20092;-53
2022/03/21 02:29:14;;;;;;;20.88;15.85;;;5.20;64.40;;;;;;4975608;28;20122;-55
2022/03/21 02:31:59;;;;;;;19.88;15.23;;;5.20;64.40;;;;;;4977882;28;20049;-53
2022/03/21 02:34:46;;;;;;;21.67;15.82;;;5.30;64.50;;;;;;4987073;28;20113;-50
2022/03/21 02:37:31;;;;;;;21.08;15.55;;;5.30;64.40;;;;;;4982767;28;20041;-49
2022/03/21 02:40:16;;;;;;;20.38;15.70;;;5.30;64.40;;;;;;4994984;28;20521;-52
2022/03/21 02:43:00;;;;;;;;;;;5.30;64.50;;;;;;4994459;28;20053;-53
2022/03/21 02:45:44;;;;;;;18.88;14.65;;;5.20;64.80;;;;;;4994796;28;20337;-52
2022/03/21 02:48:28;;;;;;;20.25;15.07;;;5.20;64.90;;;;;;5007171;28;20160;-50
2022/03/21 02:51:13;;;;;;;21.80;15.77;;;5.20;65.10;;;;;;4993390;28;20034;-53
2022/03/21 02:53:58;;;;;;;22.05;15.18;;;5.20;65.10;;;;;;4993024;28;20077;-51
2022/03/21 02:56:43;;;;;;;23.27;15.40;;;5.30;65.20;;;;;;5007829;28;20089;-52
2022/03/21 02:59:28;;;;;;;22.90;17.08;;;5.30;65.10;;;;;;4989633;28;20057;-52
2022/03/21 03:02:12;;;;;;;21.27;16.70;;;5.30;65.20;;;;;;4994425;28;20568;-50
2022/03/21 03:04:56;;;;;;;24.15;16.58;;;5.30;65.30;;;;;;4995033;28;20234;-50
2022/03/21 03:07:40;;;;;;;22.38;15.65;;;5.30;65.20;;;;;;4994355;28;20041;-50
2022/03/21 03:10:24;;;;;;;23.48;15.43;;;5.20;65.10;;;;;;5006049;28;20053;-51
2022/03/21 03:13:09;;;;;;;20.00;14.80;;;5.00;66.20;;;;;;4994040;28;20422;-52
2022/03/21 03:15:53;;;;;;;;;;;5.00;65.80;;;;;;4993519;28;20073;-54
2022/03/21 03:18:38;;;;;;;18.70;14.35;;;5.00;65.70;;;;;;4993925;28;19920;-52
2022/03/21 03:21:25;;;;;;;21.33;15.55;;;5.00;65.60;;;;;;4988266;28;20081;-52
2022/03/21 03:24:11;;;;;;;21.00;16.20;;;5.00;65.60;;;;;;4974454;28;20049;-54
2022/03/21 03:26:55;;;;;;;20.92;14.63;;;5.10;65.60;;;;;;4985272;28;20390;-52
2022/03/21 03:29:39;;;;;;;20.48;14.93;;;5.10;65.30;;;;;;4994249;28;20049;-50
2022/03/21 03:32:24;;;;;;;21.10;14.82;;;5.20;65.10;;;;;;5005899;28;20069;-51
2022/03/21 03:35:09;;;;;;;23.05;14.88;;;5.20;65.00;;;;;;4992923;28;20556;-52
2022/03/21 03:37:54;;;;;;;22.02;15.07;;;5.20;65.10;;;;;;4993787;28;20084;-55
2022/03/21 03:40:38;;;;;;;20.05;14.85;;;5.20;65.10;;;;;;4993223;28;20425;-56
2022/03/21 03:43:23;;;;;;;22.55;15.18;;;5.20;65.20;;;;;;4993464;28;20037;-55
2022/03/21 03:46:07;;;;;;;20.15;15.55;;;5.20;65.10;;;;;;4993150;28;20033;-54
2022/03/21 03:48:54;;;;;;;21.42;15.02;;;5.20;65.30;;;;;;4991971;28;20045;-54
2022/03/21 03:51:38;;;;;;;20.65;15.70;;;5.10;65.50;;;;;;4991376;28;20033;-52
2022/03/21 03:54:22;;;;;;;21.67;15.20;;;5.10;65.60;;;;;;4993401;28;20118;-53
2022/03/21 03:57:06;;;;;;;19.95;15.32;;;5.10;65.70;;;;;;4992329;28;20108;-52
2022/03/21 03:59:50;;;;;;;20.27;15.27;;;4.90;65.80;;;;;;4992420;28;20452;-54
2022/03/21 04:03:44;;;;;;;21.38;14.20;;;4.90;66.10;;;;;;4992017;28;20052;-53
2022/03/21 04:05:39;;;;;;;21.70;14.63;;;4.90;66.20;;;;;;4992014;28;20057;-54
2022/03/21 04:08:24;;;;;;;22.80;15.18;;;4.90;66.30;;;;;;4990950;28;20085;-54
2022/03/21 04:11:08;;;;;;;19.15;15.35;;;4.80;66.30;;;;;;4992364;28;20037;-51
2022/03/21 04:13:53;;;;;;;22.15;14.95;;;4.80;66.30;;;;;;4992095;28;20045;-53
2022/03/21 04:16:39;;;;;;;22.00;15.43;;;4.70;66.40;;;;;;4992250;28;20134;-51
2022/03/21 04:19:23;;;;;;;23.00;15.18;;;4.50;67.00;;;;;;4992434;28;20115;-52
2022/03/21 04:22:07;;;;;;;23.15;16.23;;;4.40;67.20;;;;;;4985369;28;20049;-54
2022/03/21 04:24:51;;;;;;;21.30;15.75;;;4.40;67.60;;;;;;4992251;28;20045;-53
2022/03/21 04:27:36;;;;;;;20.85;16.25;;;4.40;67.60;;;;;;4992676;28;20065;-52
2022/03/21 04:30:23;;;;;;;21.40;15.00;;;4.30;67.50;;;;;;4992040;28;20177;-52
2022/03/21 04:33:09;;;;;;;20.98;15.45;;;4.30;67.90;;;;;;4992331;28;20054;-52
2022/03/21 04:35:53;;;;;;;19.13;14.75;;;4.20;67.80;;;;;;4992132;28;20037;-56
2022/03/21 04:38:37;;;;;;;22.55;15.88;;;4.10;67.70;;;;;;4991211;28;20521;-52
2022/03/21 04:41:22;;;;;;;22.13;15.52;;;4.10;67.70;;;;;;4985912;28;20084;-50
2022/03/21 04:44:05;;;;;;;21.00;15.48;;;4.10;67.90;;;;;;4972465;28;20041;-54
2022/03/21 04:46:50;;;;;;;22.88;15.02;;;4.00;67.80;;;;;;5003807;28;20085;-49
2022/03/21 04:49:34;;;;;;;21.52;14.20;;;4.00;67.60;;;;;;5005650;28;20113;-50
2022/03/21 04:52:18;;;;;;;20.35;14.55;;;4.00;67.80;;;;;;4973064;28;20037;-53
2022/03/21 04:55:02;;;;;;;21.67;14.50;;;4.10;67.60;;;;;;4976138;28;20062;-51
2022/03/21 04:57:46;;;;;;;23.10;15.73;;;4.20;67.70;;;;;;4993065;28;20082;-52
2022/03/21 05:00:30;;;;;;;25.05;14.85;;;4.20;67.50;;;;;;5003554;28;20073;-56
2022/03/21 05:03:15;;;;;;;22.52;15.95;;;4.20;67.40;;;;;;4990968;28;20069;-53
2022/03/21 05:05:59;;;;;;;20.52;14.52;;;4.20;67.40;;;;;;4991900;28;20186;-55
2022/03/21 05:08:44;;;;;;;20.95;15.23;;;4.30;67.30;;;;;;4991824;28;20041;-54
2022/03/21 05:11:29;;;;;;;17.45;14.30;;;4.40;67.00;;;;;;4991169;28;20100;-50
2022/03/21 05:14:13;;;;;;;18.50;14.25;;;4.40;66.60;;;;;;4993902;28;20053;-55
2022/03/21 05:17:02;;;;;;;22.42;15.18;;;4.50;66.30;;;;;;5008624;28;20081;-50
2022/03/21 05:19:47;;;;;;;19.67;14.73;;;4.50;66.20;;;;;;4994512;28;20117;-55
2022/03/21 05:22:31;;;;;;;22.55;14.70;;;4.50;66.50;;;;;;4986948;28;20041;-54
2022/03/21 05:31:21;;;;;;;25.38;15.10;;;4.50;66.40;;;;;;5058767;23;20132;-78
2022/03/21 05:37:09;;;;;;;24.38;15.13;;;4.50;66.20;;;;;;5050723;28;20020;-78
2022/03/21 05:42:57;;;;;;;23.42;14.52;;;4.50;66.40;;;;;;5062230;28;20040;-78
2022/03/21 05:45:41;;;;;;;24.27;14.30;;;4.50;66.20;;;;;;5048420;28;20054;-78
2022/03/21 05:51:30;;;;;;;20.92;14.73;;;4.60;66.10;;;;;;5052167;28;20063;-76
2022/03/21 05:54:15;;;;;;;24.05;15.50;;;4.70;66.10;;;;;;5029131;28;20044;-78
2022/03/21 05:56:59;;;;;;;23.10;15.20;;;4.60;66.20;;;;;;5028379;28;20045;-79
2022/03/21 06:02:46;;;;;;;23.05;15.32;;;4.50;66.40;;;;;;5030723;28;20036;-80
2022/03/21 06:05:31;;;;;;;27.02;15.63;;;4.50;66.80;;;;;;5028497;28;20037;-78
2022/03/21 06:08:16;;;;;;;;;;;4.50;66.70;;;;;;5030007;28;20096;-78
2022/03/21 06:11:08;;;;;;;20.90;14.43;;;4.40;66.50;;;;;;5057977;28;19938;-78
2022/03/21 06:13:52;;;;;;;25.58;15.40;;;4.30;66.80;;;;;;5058104;28;20660;-78
2022/03/21 06:16:36;;;;;;;23.25;14.85;;;4.10;67.30;;;;;;5061685;28;20075;-79
2022/03/21 06:19:21;;;;;;;26.33;15.48;;;4.00;67.50;;;;;;5062148;28;20032;-79
2022/03/21 06:22:05;;;;;;;22.05;15.30;;;4.10;67.50;;;;;;5026483;28;20043;-78
2022/03/21 06:24:50;;;;;;;22.85;14.95;;;4.20;67.50;;;;;;5021462;28;20036;-79
2022/03/21 06:27:39;;;;;;;20.42;14.68;;;4.40;67.10;;;;;;5021824;28;20499;-79
2022/03/21 06:30:23;;;;;;;19.40;15.20;;;4.50;66.50;;;;;;5051346;28;20067;-78
2022/03/21 06:33:08;;;;;;;21.17;14.43;;;4.70;66.40;;;;;;5054032;28;20404;-80
2022/03/21 06:35:54;;;;;;;21.67;14.60;;;4.80;66.30;;;;;;5051896;28;20094;-79
2022/03/21 06:38:38;;;;;;;40.03;16.50;;;4.80;66.00;;;;;;5034934;28;20648;-78
2022/03/21 06:41:23;;;;;;;28.38;15.50;;;4.60;66.50;;;;;;5048730;28;20092;-80
2022/03/21 06:44:07;;;;;;;20.58;15.65;;;4.50;67.50;;;;;;5019445;28;20054;-80
2022/03/21 06:46:52;;;;;;;27.95;16.77;;;4.50;67.40;;;;;;5062163;28;20036;-79
2022/03/21 06:49:36;;;;;;;74.70;20.53;;;4.50;67.10;;;;;;5031731;28;20094;-78
2022/03/21 06:52:20;;;;;;;30.83;17.08;;;4.60;67.20;;;;;;5051204;28;20027;-77
2022/03/21 06:55:10;;;;;;;26.50;14.48;;;4.80;67.00;;;;;;5065778;28;20063;-78
2022/03/21 06:57:55;;;;;;;21.90;14.70;;;5.00;67.30;;;;;;5065157;28;20446;-77
2022/03/21 07:00:44;;;;;;;20.33;13.95;;;5.30;70.40;;;;;;5038244;28;20040;-77
2022/03/21 07:03:28;;;;;;;23.38;15.95;;;5.50;67.90;;;;;;5066702;28;20535;-79
2022/03/21 07:06:13;;;;;;;20.25;15.05;;;5.60;66.60;;;;;;5067617;28;20044;-77
2022/03/21 07:08:57;;;;;;;19.55;14.52;;;5.90;69.40;;;;;;5040222;28;20082;-78
2022/03/21 07:11:41;;;;;;;25.52;14.27;;;6.00;66.20;;;;;;5044813;28;20036;-76
2022/03/21 07:14:25;;;;;;;19.73;14.00;;;6.10;67.00;;;;;;5030641;28;20109;-78
2022/03/21 07:17:09;;;;;;;23.88;15.20;;;6.40;67.30;;;;;;5046352;28;20079;-77
2022/03/21 07:19:54;;;;;;;17.35;13.48;;;6.80;65.60;;;;;;5021205;28;20091;-77
2022/03/21 07:22:39;;;;;;;23.67;16.25;;;7.10;61.80;;;;;;5025192;28;20037;-77
2022/03/21 07:25:24;;;;;;;22.17;13.80;;;7.40;64.30;;;;;;5033676;28;20079;-77
2022/03/21 07:28:09;;;;;;;;;;;7.40;60.80;;;;;;5018301;28;20071;-77
2022/03/21 07:30:52;;;;;;;32.83;14.50;;;7.50;58.60;;;;;;5032907;28;20288;-78
2022/03/21 07:33:37;;;;;;;22.92;15.05;;;7.40;60.30;;;;;;5031620;28;20080;-81
2022/03/21 07:36:22;;;;;;;22.95;14.65;;;7.40;58.70;;;;;;5016740;28;20543;-76
2022/03/21 07:39:06;;;;;;;39.77;14.90;;;7.30;61.30;;;;;;5033746;28;20048;-77
2022/03/21 07:41:51;;;;;;;20.73;12.48;;;7.20;58.10;;;;;;5052879;28;20047;-76
2022/03/21 07:47:39;;;;;;;19.25;13.38;;;7.10;58.30;;;;;;5028254;28;20083;-79
2022/03/21 07:50:23;;;;;;;16.08;13.30;;;7.00;58.30;;;;;;5042978;28;20035;-77
2022/03/21 07:53:08;;;;;;;17.00;12.55;;;6.80;58.50;;;;;;5020127;28;20079;-76
2022/03/21 07:55:53;;;;;;;17.65;13.60;;;6.80;58.50;;;;;;5017770;28;20208;-78
2022/03/21 07:58:37;;;;;;;;;;;6.60;58.60;;;;;;5007601;28;20053;-78
2022/03/21 08:01:22;;;;;;;19.88;14.52;;;6.60;58.80;;;;;;5020322;28;19974;-78
2022/03/21 08:04:06;;;;;;;20.00;14.80;;;6.50;59.00;;;;;;5050948;28;20040;-78
2022/03/21 08:06:50;;;;;;;19.73;13.68;;;6.60;59.10;;;;;;5007858;28;20057;-77
2022/03/21 08:09:34;;;;;;;17.08;12.70;;;6.70;58.90;;;;;;5024507;28;20039;-76
2022/03/21 08:12:19;;;;;;;19.05;12.65;;;6.80;59.00;;;;;;5041735;28;20059;-76
2022/03/21 08:15:04;;;;;;;22.85;12.43;;;6.90;59.10;;;;;;5054577;28;20527;-76
2022/03/21 08:17:57;;;;;;;19.02;12.65;;;7.00;60.40;;;;;;5043002;28;20101;-75
2022/03/21 08:20:43;;;;;;;19.77;13.93;;;7.00;58.50;;;;;;5035022;28;20558;-75
2022/03/21 08:23:28;;;;;;;20.05;14.07;;;7.10;58.30;;;;;;5052045;28;20180;-75
2022/03/21 08:26:13;;;;;;;;;;;7.20;58.00;;;;;;5047230;28;20435;-74
2022/03/21 08:28:57;;;;;;;19.27;13.00;;;7.20;58.30;;;;;;5060843;28;19961;-75
2022/03/21 08:31:42;;;;;;;22.33;13.63;;;7.20;58.10;;;;;;5059765;28;20109;-79
2022/03/21 08:34:26;;;;;;;;;;;7.20;58.00;;;;;;5027404;28;20052;-76
2022/03/21 08:37:10;;;;;;;19.65;13.98;;;7.20;58.80;;;;;;5058362;28;19951;-75
2022/03/21 08:39:54;;;;;;;18.10;13.80;;;7.30;58.20;;;;;;5063439;28;20177;-76
2022/03/21 08:42:39;;;;;;;18.58;12.85;;;7.40;57.10;;;;;;5021619;28;20052;-76
2022/03/21 08:45:23;;;;;;;19.50;13.55;;;7.40;57.20;;;;;;5064849;28;20503;-75
2022/03/21 08:48:08;;;;;;;20.52;12.93;;;7.50;57.20;;;;;;5062289;28;20071;-76
2022/03/21 08:50:52;;;;;;;18.63;13.40;;;7.40;57.50;;;;;;5055950;28;20070;-77
2022/03/21 08:53:37;;;;;;;18.30;13.35;;;7.40;58.00;;;;;;5039494;28;20068;-77
2022/03/21 08:56:20;;;;;;;21.10;14.23;;;7.50;57.70;;;;;;5035894;28;20036;-76
2022/03/21 08:59:06;;;;;;;20.40;13.68;;;7.60;57.40;;;;;;5053331;28;20094;-77
2022/03/21 09:01:50;;;;;;;23.58;13.98;;;7.90;57.30;;;;;;5068812;28;20032;-76
2022/03/21 09:04:39;;;;;;;19.52;13.23;;;8.00;57.20;;;;;;5076587;28;20057;-76
2022/03/21 09:07:24;;;;;;;25.70;14.00;;;8.10;57.10;;;;;;5035741;28;20036;-76
2022/03/21 09:10:11;;;;;;;21.67;13.40;;;8.20;56.60;;;;;;5054096;28;20078;-76
2022/03/21 09:13:00;;;;;;;20.48;13.45;;;8.20;56.60;;;;;;5047447;28;20062;-75
2022/03/21 09:15:45;;;;;;;17.88;13.27;;;8.10;56.60;;;;;;5087886;28;20412;-76
2022/03/21 09:18:29;;;;;;;20.23;13.25;;;8.10;56.60;;;;;;5061582;28;20154;-76
2022/03/21 09:21:14;;;;;;;38.75;14.65;;;8.20;56.40;;;;;;5059525;28;20040;-77
2022/03/21 09:23:58;;;;;;;24.52;13.88;;;8.20;56.90;;;;;;5028730;28;20513;-78
2022/03/21 09:26:53;;;;;;;18.10;12.37;;;8.30;56.90;;;;;;5026819;28;20121;-77
2022/03/21 09:29:39;;;;;;;16.35;12.68;;;8.50;55.10;;;;;;5046537;28;20400;-77
2022/03/21 09:32:24;;;;;;;30.17;13.82;;;8.50;55.90;;;;;;5021955;28;20083;-76
2022/03/21 09:35:09;;;;;;;26.55;14.55;;;8.70;56.00;;;;;;5058994;28;20143;-78
2022/03/21 09:37:53;;;;;;;21.00;17.20;;;8.80;55.60;;;;;;5045124;28;20036;-79
2022/03/21 09:40:37;;;;;;;23.77;15.20;;;9.00;66.80;;;;;;5059096;28;20036;-78
2022/03/21 09:43:23;;;;;;;20.23;14.27;;;9.70;63.40;;;;;;5021976;28;20029;-77
2022/03/21 09:46:08;;;;;;;19.83;13.75;;;10.10;59.20;;;;;;5041143;28;20500;-75
2022/03/21 09:48:54;;;;;;;22.23;14.07;;;10.00;55.20;;;;;;5039325;28;20147;-77
2022/03/21 09:51:39;;;;;;;21.08;13.25;;;9.90;53.70;;;;;;5040056;28;20124;-76
2022/03/21 09:54:26;;;;;;;;;;;9.80;54.00;;;;;;5021549;28;20036;-76
2022/03/21 09:57:11;;;;;;;31.88;14.10;;;9.80;56.80;;;;;;5053874;28;20410;-78
2022/03/21 09:59:57;;;;;;;19.73;13.43;;;9.90;53.90;;;;;;5042736;28;20039;-82
2022/03/21 10:02:42;;;;;;;19.52;13.50;;;9.80;55.90;;;;;;5024028;28;20039;-76
2022/03/21 10:05:33;;;;;;;17.25;13.05;;;9.80;53.80;;;;;;5024053;28;20036;-76
2022/03/21 10:08:23;;;;;;;21.38;14.20;;;9.90;54.30;;;;;;5053383;28;20032;-78
2022/03/21 10:11:13;;;;;;;18.45;12.93;;;9.80;53.30;;;;;;5065328;28;20050;-79
2022/03/21 10:14:00;;;;;;;17.58;14.13;;;9.80;55.20;;;;;;5037259;28;20041;-78
2022/03/21 10:17:14;;;;;;;17.17;13.55;;;10.00;53.10;;;;;;5041800;28;20116;-77
2022/03/21 10:19:59;;;;;;;17.80;13.50;;;10.00;53.00;;;;;;5045485;28;20043;-77
2022/03/21 10:22:45;;;;;;;17.23;13.30;;;9.80;53.30;;;;;;5040223;28;20115;-77
2022/03/21 10:25:31;;;;;;;17.90;13.65;;;9.80;53.90;;;;;;5014831;28;20114;-78
2022/03/21 10:28:36;;;;;;;18.90;13.90;;;10.00;53.90;;;;;;5028032;28;20028;-78
2022/03/21 10:31:44;;;;;;;20.55;13.70;;;10.20;53.20;;;;;;5041265;28;20068;-79
2022/03/21 10:34:34;;;;;;;18.67;13.73;;;10.10;53.50;;;;;;5022299;28;20107;-77
2022/03/21 10:37:21;;;;;;;18.98;13.95;;;10.20;53.80;;;;;;5008286;28;20051;-79
2022/03/21 10:40:21;;;;;;;23.40;15.18;;;10.40;53.40;;;;;;5028500;28;20143;-78
2022/03/21 10:43:09;;;;;;;18.15;14.82;;;10.50;53.40;;;;;;5047210;28;20043;-77
2022/03/21 10:45:54;;;;;;;38.22;20.90;;;10.60;53.40;;;;;;5040453;28;20439;-79
2022/03/21 10:48:40;;;;;;;;;;;10.70;53.20;;;;;;5039357;28;20166;-79
2022/03/21 10:51:27;;;;;;;20.17;14.57;;;10.70;52.80;;;;;;5035664;28;19920;-77
2022/03/21 10:54:37;;;;;;;20.23;13.35;;;10.80;52.60;;;;;;5041049;28;20045;-78
2022/03/21 10:57:36;;;;;;;19.05;13.65;;;10.80;52.70;;;;;;5044907;28;20025;-79
2022/03/21 11:00:28;;;;;;;19.30;13.57;;;10.90;52.40;;;;;;5027521;28;20043;-77
2022/03/21 11:03:16;;;;;;;17.13;14.02;;;10.90;52.60;;;;;;5024979;28;20044;-76
2022/03/21 11:06:00;;;;;;;18.13;14.70;;;11.00;51.90;;;;;;5009646;28;20049;-78
2022/03/21 11:08:47;;;;;;;20.70;15.35;;;10.90;52.20;;;;;;5012276;28;20029;-78
2022/03/21 11:11:33;;;;;;;25.65;15.40;;;11.00;52.00;;;;;;5020991;28;20040;-75
2022/03/21 11:14:40;;;;;;;16.73;14.07;;;11.00;52.10;;;;;;5024329;28;20333;-79
2022/03/21 11:17:28;;;;;;;21.45;14.98;;;11.10;52.10;;;;;;5027418;28;20024;-77
2022/03/21 11:20:15;;;;;;;19.40;14.55;;;11.20;52.00;;;;;;5024242;28;20040;-81
2022/03/21 11:23:00;;;;;;;17.50;13.43;;;11.20;53.90;;;;;;5053467;28;20044;-81
2022/03/21 11:26:15;;;;;;;20.92;13.70;;;11.60;57.00;;;;;;5034238;28;20075;-81
2022/03/21 11:29:39;;;;;;;18.77;13.70;;;11.90;55.80;;;;;;5052910;28;20052;-82
2022/03/21 11:32:42;;;;;;;17.02;13.60;;;12.30;54.20;;;;;;5042474;28;20036;-78
2022/03/21 11:35:29;;;;;;;17.98;14.05;;;12.70;52.30;;;;;;5057216;23;20051;-55
2022/03/21 11:38:24;;;;;;;18.77;13.98;;;12.80;51.40;;;;;;5007289;28;20114;-54
2022/03/21 11:41:10;;;;;;;;;;;12.90;51.70;;;;;;5032452;28;20056;-55
2022/03/21 11:44:03;;;;;;;;;;;12.90;51.80;;;;;;5034365;28;19916;-55
2022/03/21 11:46:48;;;;;;;19.50;14.38;;;12.90;51.80;;;;;;5040849;28;19993;-54
2022/03/21 11:49:31;;;;;;;18.07;13.97;;;12.90;50.30;;;;;;5031449;28;20155;-54
2022/03/21 11:52:16;;;;;;;15.82;13.68;;;12.80;49.30;;;;;;5033724;28;20033;-54
2022/03/21 11:55:27;;;;;;;17.60;14.10;;;12.60;49.70;;;;;;5022623;28;20062;-54
2022/03/21 11:58:40;;;;;;;19.92;13.77;;;12.60;49.70;;;;;;5014410;28;20048;-54
2022/03/21 12:01:27;;;;;;;18.77;13.52;;;12.50;48.90;;;;;;5022614;28;20032;-57
2022/03/21 12:04:24;;;;;;;21.42;13.68;;;12.20;49.00;;;;;;5035676;28;20179;-55
2022/03/21 12:07:11;;;;;;;17.50;14.00;;;12.10;49.10;;;;;;5041902;28;20440;-53
2022/03/21 12:09:57;;;;;;;19.80;13.57;;;12.10;48.70;;;;;;5026900;28;20099;-53
2022/03/21 12:12:41;;;;;;;18.13;14.00;;;12.20;48.60;;;;;;5032491;28;20024;-53
2022/03/21 12:15:33;;;;;;;15.50;13.85;;;12.20;49.00;;;;;;5028312;28;20044;-52
2022/03/21 12:18:19;;;;;;;15.48;13.32;;;12.20;49.60;;;;;;5028447;28;20435;-52
2022/03/21 12:21:11;;;;;;;14.68;13.07;;;12.30;49.70;;;;;;5014690;28;20099;-56
2022/03/21 12:24:16;;;;;;;20.30;13.68;;;12.50;49.60;;;;;;5006298;28;20088;-52
2022/03/21 12:27:05;;;;;;;16.58;14.35;;;12.50;48.10;;;;;;5028677;28;20037;-55
2022/03/21 12:29:50;;;;;;;15.18;13.38;;;12.60;47.90;;;;;;5023623;28;20036;-54
2022/03/21 12:32:50;;;;;;;16.17;13.38;;;12.80;48.20;;;;;;5025690;28;20492;-53
2022/03/21 12:35:42;;;;;;;20.55;13.57;;;12.80;48.00;;;;;;5029412;28;20069;-58
2022/03/21 12:38:34;;;;;;;38.55;15.85;;;13.00;48.30;;;;;;5029144;28;20055;-56
2022/03/21 12:41:19;;;;;;;18.98;12.40;;;13.20;48.00;;;;;;5022297;28;20408;-57
2022/03/21 12:44:03;;;;;;;21.33;13.43;;;13.30;48.10;;;;;;5023834;28;20044;-54
2022/03/21 12:46:57;;;;;;;14.77;12.63;;;13.40;47.00;;;;;;5039362;28;20056;-55
2022/03/21 12:49:52;;;;;;;19.92;12.32;;;13.40;45.70;;;;;;5024862;28;20051;-57
2022/03/21 12:52:36;;;;;;;;;;;13.40;45.90;;;;;;5020233;28;20201;-57
2022/03/21 12:55:21;;;;;;;23.75;15.15;;;13.60;49.00;;;;;;5040803;28;20046;-56
2022/03/21 12:58:10;;;;;;;24.70;15.20;;;13.90;49.00;;;;;;5038386;28;20432;-58
2022/03/21 13:00:56;;;;;;;17.95;12.88;;;14.00;47.90;;;;;;5049363;28;20068;-55
2022/03/21 13:03:41;;;;;;;18.02;12.82;;;14.20;46.70;;;;;;5038323;28;20036;-56
2022/03/21 13:12:42;;;;;;;18.15;13.55;;;14.40;47.10;;;;;;5028430;28;20056;-55
2022/03/21 13:15:28;;;;;;;19.83;13.18;;;14.50;46.60;;;;;;5034416;28;20136;-53
2022/03/21 13:18:12;;;;;;;16.73;13.25;;;14.80;47.10;;;;;;5018384;28;20049;-55
2022/03/21 13:21:02;;;;;;;19.50;12.75;;;14.80;45.30;;;;;;5026396;28;20138;-54
2022/03/21 13:23:48;;;;;;;19.70;13.57;;;15.00;45.00;;;;;;5028855;28;20052;-55
2022/03/21 13:26:32;;;;;;;17.50;12.68;;;14.90;45.00;;;;;;5027131;28;20091;-55
2022/03/21 13:29:16;;;;;;;18.60;13.05;;;15.10;46.70;;;;;;5012481;28;20040;-56
2022/03/21 13:32:02;;;;;;;16.65;13.15;;;15.30;45.80;;;;;;5026958;28;20397;-55
2022/03/21 13:34:52;;;;;;;14.75;11.25;;;15.40;45.40;;;;;;5034073;28;20180;-60
2022/03/21 13:37:37;;;;;;;14.85;12.75;;;15.60;44.70;;;;;;5033037;28;20040;-51
2022/03/21 13:40:21;;;;;;;14.75;12.30;;;15.70;43.40;;;;;;5018389;28;20040;-51
2022/03/21 13:43:17;;;;;;;14.68;12.15;;;15.70;43.90;;;;;;5016621;28;20072;-59
2022/03/21 13:46:01;;;;;;;16.80;12.18;;;15.80;44.30;;;;;;5027519;28;20429;-58
2022/03/21 13:48:45;;;;;;;17.02;12.63;;;16.00;44.40;;;;;;5027278;28;20064;-58
2022/03/21 13:51:30;;;;;;;24.15;12.80;;;16.20;42.90;;;;;;5015693;28;20049;-56
2022/03/21 13:54:15;;;;;;;15.23;12.07;;;16.40;43.80;;;;;;5013803;28;20044;-57
2022/03/21 13:57:07;;;;;;;19.50;12.43;;;16.60;43.90;;;;;;5030180;28;20060;-58
2022/03/21 14:00:08;;;;;;;20.38;12.80;;;16.80;43.80;;;;;;5016656;28;20101;-55
2022/03/21 14:02:53;;;;;;;15.48;12.52;;;16.80;42.60;;;;;;5017086;28;20036;-59
2022/03/21 14:05:41;;;;;;;15.02;12.60;;;16.50;42.60;;;;;;5032306;28;20032;-57
2022/03/21 14:08:26;;;;;;;13.93;12.43;;;16.50;42.80;;;;;;5025770;28;20087;-56
2022/03/21 14:11:18;;;;;;;15.98;12.05;;;16.60;43.00;;;;;;5030525;28;20047;-56
2022/03/21 14:14:03;;;;;;;13.25;11.55;;;16.90;42.70;;;;;;5020731;28;20524;-56
2022/03/21 14:16:47;;;;;;;14.75;12.35;;;16.90;40.80;;;;;;5035275;28;20060;-56
2022/03/21 14:19:34;;;;;;;15.10;12.63;;;16.70;41.10;;;;;;5040938;28;20124;-57
2022/03/21 14:22:19;;;;;;;21.88;14.18;;;16.60;42.20;;;;;;5027324;28;20548;-56
2022/03/21 14:26:29;;;;;;;22.30;15.10;;;16.70;44.00;;;;;;5026231;28;20120;-51
2022/03/21 14:28:07;;;;;;;41.42;19.52;;;16.80;41.40;;;;;;5035249;28;20028;-56
2022/03/21 14:30:51;;;;;;;25.58;16.38;;;17.20;41.30;;;;;;5025878;28;20091;-55
2022/03/21 14:33:35;;;;;;;27.85;15.70;;;17.30;41.10;;;;;;5037234;28;20120;-58
2022/03/21 14:36:19;;;;;;;23.23;14.23;;;17.50;42.00;;;;;;5036987;28;20048;-57
2022/03/21 14:39:03;;;;;;;18.90;12.88;;;17.70;41.50;;;;;;5024130;28;20124;-58
2022/03/21 14:41:48;;;;;;;13.43;12.02;;;18.10;40.70;;;;;;5040969;28;20425;-54
2022/03/21 14:44:32;;;;;;;20.20;13.00;;;18.20;39.30;;;;;;5026619;28;20044;-56
2022/03/21 14:47:16;;;;;;;;;;;18.10;39.20;;;;;;5015227;28;20413;-54
2022/03/21 14:50:01;;;;;;;17.30;12.00;;;18.00;39.00;;;;;;5024568;28;20013;-55